sensor_id;sensor_type;location;lat;lon;timestamp;pressure;altitude;pressure_sealevel;temperature;humidity
11523;BME280;70090;43.208;27.904;2023-09-18T00:00:50;101474.66;;;21.22;100.00
11523;BME280;70090;43.208;27.904;2023-09-18T00:03:17;101471.50;;;21.20;100.00
11523;BME280;70090;43.208;27.904;2023-09-18T00:05:45;101473.44;;;21.23;100.00
11523;BME280;70090;43.208;27.904;2023-09-18T00:08:13;101458.34;;;21.17;100.00
11523;BME280;70090;43.208;27.904;2023-09-18T00:10:40;101463.41;;;21.25;100.00
11523;BME280;70090;43.208;27.904;2023-09-18T00:13:07;101459.03;;;21.24;100.00
11523;BME280;70090;43.208;27.904;2023-09-18T00:15:34;101465.00;;;21.26;100.00
11523;BME280;70090;43.208;27.904;2023-09-18T00:18:04;101458.91;;;21.31;100.00
11523;BME280;70090;43.208;27.904;2023-09-18T00:20:31;101456.03;;;21.35;100.00
11523;BME280;70090;43.208;27.904;2023-09-18T00:22:57;101458.91;;;21.31;100.00
11523;BME280;70090;43.208;27.904;2023-09-18T00:25:24;101460.47;;;21.32;100.00
11523;BME280;70090;43.208;27.904;2023-09-18T00:27:51;101459.34;;;21.30;100.00
11523;BME280;70090;43.208;27.904;2023-09-18T00:30:18;101468.16;;;21.28;100.00
11523;BME280;70090;43.208;27.904;2023-09-18T00:32:45;101454.53;;;21.30;100.00
11523;BME280;70090;43.208;27.904;2023-09-18T00:35:17;101465.78;;;21.27;100.00
11523;BME280;70090;43.208;27.904;2023-09-18T00:37:44;101464.25;;;21.22;100.00
11523;BME280;70090;43.208;27.904;2023-09-18T00:40:12;101461.13;;;21.17;100.00
11523;BME280;70090;43.208;27.904;2023-09-18T00:42:39;101463.63;;;21.11;100.00
11523;BME280;70090;43.208;27.904;2023-09-18T00:45:06;101460.97;;;21.04;100.00
11523;BME280;70090;43.208;27.904;2023-09-18T00:47:34;101459.78;;;21.02;100.00
11523;BME280;70090;43.208;27.904;2023-09-18T00:50:03;101437.63;;;20.88;100.00
11523;BME280;70090;43.208;27.904;2023-09-18T00:52:32;101462.19;;;21.03;100.00
11523;BME280;70090;43.208;27.904;2023-09-18T00:55:00;101455.72;;;21.06;100.00
11523;BME280;70090;43.208;27.904;2023-09-18T00:57:28;101465.38;;;21.02;100.00
11523;BME280;70090;43.208;27.904;2023-09-18T00:59:55;101450.22;;;20.99;100.00
11523;BME280;70090;43.208;27.904;2023-09-18T01:02:22;101445.00;;;21.01;100.00
11523;BME280;70090;43.208;27.904;2023-09-18T01:04:49;101455.09;;;20.95;100.00
11523;BME280;70090;43.208;27.904;2023-09-18T01:07:16;101447.94;;;20.94;100.00
11523;BME280;70090;43.208;27.904;2023-09-18T01:09:45;101444.75;;;20.92;100.00
11523;BME280;70090;43.208;27.904;2023-09-18T01:12:18;101447.06;;;20.97;100.00
11523;BME280;70090;43.208;27.904;2023-09-18T01:14:51;101443.41;;;21.00;100.00
11523;BME280;70090;43.208;27.904;2023-09-18T01:17:20;101433.94;;;20.94;99.41
11523;BME280;70090;43.208;27.904;2023-09-18T01:19:48;101438.38;;;20.92;99.15
11523;BME280;70090;43.208;27.904;2023-09-18T01:22:17;101439.63;;;20.87;98.90
11523;BME280;70090;43.208;27.904;2023-09-18T01:24:46;101430.88;;;20.85;99.32
11523;BME280;70090;43.208;27.904;2023-09-18T01:27:14;101440.03;;;20.86;99.67
11523;BME280;70090;43.208;27.904;2023-09-18T01:29:42;101440.00;;;20.89;98.82
11523;BME280;70090;43.208;27.904;2023-09-18T01:32:09;101436.06;;;20.87;98.98
11523;BME280;70090;43.208;27.904;2023-09-18T01:34:37;101438.06;;;20.86;98.91
11523;BME280;70090;43.208;27.904;2023-09-18T01:37:07;101440.91;;;20.79;99.29
11523;BME280;70090;43.208;27.904;2023-09-18T01:39:36;101439.69;;;20.80;99.66
11523;BME280;70090;43.208;27.904;2023-09-18T01:42:06;101431.69;;;20.82;99.82
11523;BME280;70090;43.208;27.904;2023-09-18T01:44:35;101439.22;;;20.89;100.00
11523;BME280;70090;43.208;27.904;2023-09-18T01:47:04;101441.56;;;20.90;100.00
11523;BME280;70090;43.208;27.904;2023-09-18T01:49:33;101441.13;;;20.95;99.69
11523;BME280;70090;43.208;27.904;2023-09-18T01:52:00;101450.81;;;20.87;99.20
11523;BME280;70090;43.208;27.904;2023-09-18T01:54:28;101452.03;;;20.86;99.78
11523;BME280;70090;43.208;27.904;2023-09-18T01:56:55;101447.16;;;20.90;100.00
11523;BME280;70090;43.208;27.904;2023-09-18T01:59:23;101452.00;;;20.90;100.00
11523;BME280;70090;43.208;27.904;2023-09-18T02:01:51;101444.44;;;20.87;100.00
11523;BME280;70090;43.208;27.904;2023-09-18T02:04:18;101440.84;;;20.86;100.00
11523;BME280;70090;43.208;27.904;2023-09-18T02:06:45;101437.75;;;20.77;100.00
11523;BME280;70090;43.208;27.904;2023-09-18T02:09:13;101432.25;;;20.70;100.00
11523;BME280;70090;43.208;27.904;2023-09-18T02:11:40;101442.72;;;20.66;100.00
11523;BME280;70090;43.208;27.904;2023-09-18T02:14:08;101442.66;;;20.70;100.00
11523;BME280;70090;43.208;27.904;2023-09-18T02:16:38;101443.13;;;20.65;100.00
11523;BME280;70090;43.208;27.904;2023-09-18T02:19:06;101446.72;;;20.65;100.00
11523;BME280;70090;43.208;27.904;2023-09-18T02:21:34;101435.13;;;20.67;100.00
11523;BME280;70090;43.208;27.904;2023-09-18T02:24:02;101438.00;;;20.60;100.00
11523;BME280;70090;43.208;27.904;2023-09-18T02:26:29;101451.69;;;20.54;100.00
11523;BME280;70090;43.208;27.904;2023-09-18T02:28:58;101446.19;;;20.47;100.00
11523;BME280;70090;43.208;27.904;2023-09-18T02:31:26;101451.72;;;20.51;100.00
11523;BME280;70090;43.208;27.904;2023-09-18T02:33:54;101443.00;;;20.45;100.00
11523;BME280;70090;43.208;27.904;2023-09-18T02:36:20;101443.22;;;20.32;100.00
11523;BME280;70090;43.208;27.904;2023-09-18T02:38:47;101449.81;;;20.15;100.00
11523;BME280;70090;43.208;27.904;2023-09-18T02:41:14;101446.41;;;19.97;100.00
11523;BME280;70090;43.208;27.904;2023-09-18T02:43:41;101456.06;;;19.89;100.00
11523;BME280;70090;43.208;27.904;2023-09-18T02:46:08;101451.75;;;19.84;100.00
11523;BME280;70090;43.208;27.904;2023-09-18T02:48:35;101454.28;;;19.68;100.00
11523;BME280;70090;43.208;27.904;2023-09-18T02:51:03;101452.34;;;19.65;100.00
11523;BME280;70090;43.208;27.904;2023-09-18T02:53:30;101450.28;;;19.69;100.00
11523;BME280;70090;43.208;27.904;2023-09-18T02:55:58;101455.06;;;19.72;100.00
11523;BME280;70090;43.208;27.904;2023-09-18T02:58:26;101451.56;;;19.65;100.00
11523;BME280;70090;43.208;27.904;2023-09-18T03:00:55;101444.44;;;19.57;100.00
11523;BME280;70090;43.208;27.904;2023-09-18T03:03:23;101451.91;;;19.70;100.00
11523;BME280;70090;43.208;27.904;2023-09-18T03:05:50;101461.41;;;19.76;100.00
11523;BME280;70090;43.208;27.904;2023-09-18T03:08:18;101451.00;;;19.80;100.00
11523;BME280;70090;43.208;27.904;2023-09-18T03:10:45;101454.88;;;19.90;100.00
11523;BME280;70090;43.208;27.904;2023-09-18T03:13:14;101459.53;;;20.00;100.00
11523;BME280;70090;43.208;27.904;2023-09-18T03:15:44;101456.31;;;20.05;100.00
11523;BME280;70090;43.208;27.904;2023-09-18T03:18:12;101462.72;;;20.02;100.00
11523;BME280;70090;43.208;27.904;2023-09-18T03:20:40;101459.19;;;19.98;100.00
11523;BME280;70090;43.208;27.904;2023-09-18T03:23:07;101460.09;;;19.88;100.00
11523;BME280;70090;43.208;27.904;2023-09-18T03:25:35;101451.56;;;19.98;100.00
11523;BME280;70090;43.208;27.904;2023-09-18T03:28:03;101453.97;;;20.00;100.00
11523;BME280;70090;43.208;27.904;2023-09-18T03:30:30;101457.53;;;20.04;100.00
11523;BME280;70090;43.208;27.904;2023-09-18T03:32:57;101457.13;;;20.05;100.00
11523;BME280;70090;43.208;27.904;2023-09-18T03:35:24;101449.22;;;19.97;100.00
11523;BME280;70090;43.208;27.904;2023-09-18T03:37:52;101462.38;;;19.96;100.00
11523;BME280;70090;43.208;27.904;2023-09-18T03:40:19;101447.56;;;19.99;100.00
11523;BME280;70090;43.208;27.904;2023-09-18T03:42:48;101455.91;;;20.06;100.00
11523;BME280;70090;43.208;27.904;2023-09-18T03:45:15;101456.38;;;19.98;100.00
11523;BME280;70090;43.208;27.904;2023-09-18T03:47:44;101457.66;;;19.90;100.00
11523;BME280;70090;43.208;27.904;2023-09-18T03:50:11;101454.88;;;19.90;100.00
11523;BME280;70090;43.208;27.904;2023-09-18T03:52:39;101459.28;;;19.87;100.00
11523;BME280;70090;43.208;27.904;2023-09-18T03:55:06;101449.78;;;19.81;100.00
11523;BME280;70090;43.208;27.904;2023-09-18T03:57:34;101447.41;;;19.80;100.00
11523;BME280;70090;43.208;27.904;2023-09-18T04:00:04;101449.44;;;19.76;100.00
11523;BME280;70090;43.208;27.904;2023-09-18T04:02:32;101459.75;;;19.82;100.00
11523;BME280;70090;43.208;27.904;2023-09-18T04:04:59;101452.97;;;19.80;100.00
11523;BME280;70090;43.208;27.904;2023-09-18T04:07:26;101466.97;;;19.76;100.00
11523;BME280;70090;43.208;27.904;2023-09-18T04:09:53;101460.19;;;19.77;100.00
11523;BME280;70090;43.208;27.904;2023-09-18T04:12:20;101464.66;;;19.71;100.00
11523;BME280;70090;43.208;27.904;2023-09-18T04:14:46;101471.78;;;19.76;100.00
11523;BME280;70090;43.208;27.904;2023-09-18T04:17:15;101462.16;;;19.80;100.00
11523;BME280;70090;43.208;27.904;2023-09-18T04:19:41;101465.56;;;19.95;100.00
11523;BME280;70090;43.208;27.904;2023-09-18T04:22:09;101470.59;;;20.14;100.00
11523;BME280;70090;43.208;27.904;2023-09-18T04:24:36;101473.66;;;20.23;100.00
11523;BME280;70090;43.208;27.904;2023-09-18T04:27:03;101467.53;;;20.34;100.00
11523;BME280;70090;43.208;27.904;2023-09-18T04:29:30;101474.91;;;20.51;100.00
11523;BME280;70090;43.208;27.904;2023-09-18T04:31:57;101471.53;;;20.63;100.00
11523;BME280;70090;43.208;27.904;2023-09-18T04:34:25;101474.59;;;20.72;100.00
11523;BME280;70090;43.208;27.904;2023-09-18T04:36:52;101468.16;;;20.75;100.00
11523;BME280;70090;43.208;27.904;2023-09-18T04:39:19;101478.50;;;20.78;100.00
11523;BME280;70090;43.208;27.904;2023-09-18T04:41:46;101472.25;;;20.67;100.00
11523;BME280;70090;43.208;27.904;2023-09-18T04:44:13;101465.81;;;20.70;100.00
11523;BME280;70090;43.208;27.904;2023-09-18T04:46:40;101471.75;;;20.76;100.00
11523;BME280;70090;43.208;27.904;2023-09-18T04:49:08;101472.53;;;20.76;100.00
11523;BME280;70090;43.208;27.904;2023-09-18T04:51:37;101472.53;;;20.76;100.00
11523;BME280;70090;43.208;27.904;2023-09-18T04:54:05;101473.41;;;20.73;100.00
11523;BME280;70090;43.208;27.904;2023-09-18T04:56:32;101466.31;;;20.65;100.00
11523;BME280;70090;43.208;27.904;2023-09-18T04:58:59;101476.19;;;20.73;100.00
11523;BME280;70090;43.208;27.904;2023-09-18T05:01:25;101469.06;;;20.69;100.00
11523;BME280;70090;43.208;27.904;2023-09-18T05:03:52;101468.63;;;20.70;100.00
11523;BME280;70090;43.208;27.904;2023-09-18T05:06:19;101469.00;;;20.72;100.00
11523;BME280;70090;43.208;27.904;2023-09-18T05:08:47;101476.06;;;20.80;100.00
11523;BME280;70090;43.208;27.904;2023-09-18T05:11:14;101470.41;;;20.87;100.00
11523;BME280;70090;43.208;27.904;2023-09-18T05:13:42;101464.72;;;20.94;100.00
11523;BME280;70090;43.208;27.904;2023-09-18T05:16:08;101466.25;;;20.99;100.00
11523;BME280;70090;43.208;27.904;2023-09-18T05:18:35;101466.56;;;21.04;100.00
11523;BME280;70090;43.208;27.904;2023-09-18T05:21:03;101468.88;;;21.09;100.00
11523;BME280;70090;43.208;27.904;2023-09-18T05:23:30;101473.91;;;21.18;100.00
11523;BME280;70090;43.208;27.904;2023-09-18T05:25:59;101481.00;;;21.26;100.00
11523;BME280;70090;43.208;27.904;2023-09-18T05:28:26;101469.56;;;21.40;100.00
11523;BME280;70090;43.208;27.904;2023-09-18T05:30:53;101480.59;;;21.50;100.00
11523;BME280;70090;43.208;27.904;2023-09-18T05:33:20;101482.41;;;21.60;100.00
11523;BME280;70090;43.208;27.904;2023-09-18T05:35:47;101467.44;;;21.70;100.00
11523;BME280;70090;43.208;27.904;2023-09-18T05:38:14;101463.31;;;21.78;100.00
11523;BME280;70090;43.208;27.904;2023-09-18T05:40:43;101465.25;;;21.81;100.00
11523;BME280;70090;43.208;27.904;2023-09-18T05:43:11;101465.47;;;21.90;100.00
11523;BME280;70090;43.208;27.904;2023-09-18T05:45:38;101467.06;;;21.91;100.00
11523;BME280;70090;43.208;27.904;2023-09-18T05:48:05;101459.56;;;22.04;100.00
11523;BME280;70090;43.208;27.904;2023-09-18T05:50:34;101470.31;;;22.09;100.00
11523;BME280;70090;43.208;27.904;2023-09-18T05:53:01;101476.78;;;22.26;100.00
11523;BME280;70090;43.208;27.904;2023-09-18T05:55:30;101468.09;;;22.40;100.00
11523;BME280;70090;43.208;27.904;2023-09-18T05:57:57;101468.22;;;22.52;100.00
11523;BME280;70090;43.208;27.904;2023-09-18T06:00:25;101469.63;;;22.60;100.00
11523;BME280;70090;43.208;27.904;2023-09-18T06:02:53;101479.59;;;22.81;100.00
11523;BME280;70090;43.208;27.904;2023-09-18T06:05:19;101477.63;;;22.97;100.00
11523;BME280;70090;43.208;27.904;2023-09-18T06:07:48;101467.34;;;23.06;98.75
11523;BME280;70090;43.208;27.904;2023-09-18T06:10:15;101483.97;;;23.33;97.42
11523;BME280;70090;43.208;27.904;2023-09-18T06:12:43;101492.22;;;23.56;95.70
11523;BME280;70090;43.208;27.904;2023-09-18T06:15:10;101489.56;;;23.65;93.43
11523;BME280;70090;43.208;27.904;2023-09-18T06:17:40;101486.03;;;23.77;91.71
11523;BME280;70090;43.208;27.904;2023-09-18T06:20:08;101489.84;;;23.86;91.27
11523;BME280;70090;43.208;27.904;2023-09-18T06:22:36;101494.91;;;23.91;90.80
11523;BME280;70090;43.208;27.904;2023-09-18T06:25:04;101492.53;;;23.90;90.11
11523;BME280;70090;43.208;27.904;2023-09-18T06:27:34;101495.06;;;24.00;90.06
11523;BME280;70090;43.208;27.904;2023-09-18T06:30:02;101498.63;;;24.17;88.43
11523;BME280;70090;43.208;27.904;2023-09-18T06:32:29;101484.50;;;24.33;86.90
11523;BME280;70090;43.208;27.904;2023-09-18T06:34:58;101493.75;;;24.46;85.74
11523;BME280;70090;43.208;27.904;2023-09-18T06:37:24;101489.38;;;24.45;83.94
11523;BME280;70090;43.208;27.904;2023-09-18T06:39:51;101492.19;;;24.45;84.33
11523;BME280;70090;43.208;27.904;2023-09-18T06:42:18;101495.13;;;24.54;83.22
11523;BME280;70090;43.208;27.904;2023-09-18T06:44:45;101494.94;;;24.61;82.41
11523;BME280;70090;43.208;27.904;2023-09-18T06:47:12;101500.69;;;24.70;81.04
11523;BME280;70090;43.208;27.904;2023-09-18T06:49:40;101491.22;;;24.64;80.54
11523;BME280;70090;43.208;27.904;2023-09-18T06:52:09;101500.13;;;24.75;80.65
11523;BME280;70090;43.208;27.904;2023-09-18T06:54:36;101496.91;;;24.89;78.09
11523;BME280;70090;43.208;27.904;2023-09-18T06:57:03;101490.47;;;25.01;77.36
11523;BME280;70090;43.208;27.904;2023-09-18T06:59:30;101494.06;;;25.14;77.42
11523;BME280;70090;43.208;27.904;2023-09-18T07:02:00;101495.09;;;25.20;76.91
11523;BME280;70090;43.208;27.904;2023-09-18T07:04:27;101496.44;;;25.40;76.12
11523;BME280;70090;43.208;27.904;2023-09-18T07:06:53;101491.91;;;25.55;74.51
11523;BME280;70090;43.208;27.904;2023-09-18T07:09:23;101501.91;;;25.69;71.42
11523;BME280;70090;43.208;27.904;2023-09-18T07:11:51;101489.78;;;25.80;70.53
11523;BME280;70090;43.208;27.904;2023-09-18T07:14:18;101488.81;;;25.75;69.62
11523;BME280;70090;43.208;27.904;2023-09-18T07:16:45;101488.00;;;25.74;69.24
11523;BME280;70090;43.208;27.904;2023-09-18T07:19:12;101497.06;;;25.69;68.86
11523;BME280;70090;43.208;27.904;2023-09-18T07:21:42;101491.44;;;25.69;66.81
11523;BME280;70090;43.208;27.904;2023-09-18T07:24:10;101493.22;;;25.76;66.10
11523;BME280;70090;43.208;27.904;2023-09-18T07:26:44;101486.09;;;25.83;66.08
11523;BME280;70090;43.208;27.904;2023-09-18T07:29:12;101490.28;;;25.79;64.09
11523;BME280;70090;43.208;27.904;2023-09-18T07:31:40;101482.69;;;25.88;64.29
11523;BME280;70090;43.208;27.904;2023-09-18T07:34:10;101482.69;;;25.88;63.30
11523;BME280;70090;43.208;27.904;2023-09-18T07:36:37;101498.69;;;25.91;63.19
11523;BME280;70090;43.208;27.904;2023-09-18T07:39:04;101475.88;;;25.98;63.57
11523;BME280;70090;43.208;27.904;2023-09-18T07:41:31;101504.34;;;25.91;63.14
11523;BME280;70090;43.208;27.904;2023-09-18T07:44:00;101491.13;;;26.01;62.61
11523;BME280;70090;43.208;27.904;2023-09-18T07:46:26;101493.34;;;26.06;62.92
11523;BME280;70090;43.208;27.904;2023-09-18T07:48:55;101491.00;;;26.04;62.61
11523;BME280;70090;43.208;27.904;2023-09-18T07:51:21;101501.56;;;26.13;62.08
11523;BME280;70090;43.208;27.904;2023-09-18T07:53:49;101497.94;;;26.12;61.53
11523;BME280;70090;43.208;27.904;2023-09-18T07:56:15;101502.31;;;26.13;61.89
11523;BME280;70090;43.208;27.904;2023-09-18T07:58:44;101486.59;;;26.03;62.26
11523;BME280;70090;43.208;27.904;2023-09-18T08:01:13;101495.38;;;26.05;62.79
11523;BME280;70090;43.208;27.904;2023-09-18T08:03:41;101497.03;;;26.15;62.85
11523;BME280;70090;43.208;27.904;2023-09-18T08:06:08;101495.72;;;26.07;63.13
11523;BME280;70090;43.208;27.904;2023-09-18T08:08:37;101512.41;;;26.14;63.35
11523;BME280;70090;43.208;27.904;2023-09-18T08:11:07;101506.75;;;26.14;61.61
11523;BME280;70090;43.208;27.904;2023-09-18T08:13:35;101499.94;;;25.90;63.29
11523;BME280;70090;43.208;27.904;2023-09-18T08:16:02;101508.25;;;26.06;64.94
11523;BME280;70090;43.208;27.904;2023-09-18T08:18:30;101503.06;;;26.26;67.08
11523;BME280;70090;43.208;27.904;2023-09-18T08:20:57;101506.00;;;26.44;67.65
11523;BME280;70090;43.208;27.904;2023-09-18T08:23:25;101508.78;;;26.57;66.71
11523;BME280;70090;43.208;27.904;2023-09-18T08:25:53;101501.31;;;26.63;67.86
11523;BME280;70090;43.208;27.904;2023-09-18T08:28:22;101503.06;;;26.69;67.21
11523;BME280;70090;43.208;27.904;2023-09-18T08:30:49;101494.00;;;26.74;65.16
11523;BME280;70090;43.208;27.904;2023-09-18T08:33:16;101504.16;;;26.72;63.35
11523;BME280;70090;43.208;27.904;2023-09-18T08:35:44;101496.25;;;26.58;62.16
11523;BME280;70090;43.208;27.904;2023-09-18T08:38:12;101501.63;;;26.65;62.76
11523;BME280;70090;43.208;27.904;2023-09-18T08:40:40;101497.75;;;26.71;64.32
11523;BME280;70090;43.208;27.904;2023-09-18T08:43:10;101494.78;;;26.75;65.19
11523;BME280;70090;43.208;27.904;2023-09-18T08:45:47;101494.84;;;26.84;66.41
11523;BME280;70090;43.208;27.904;2023-09-18T08:48:17;101500.38;;;26.96;65.62
11523;BME280;70090;43.208;27.904;2023-09-18T08:50:45;101486.28;;;27.05;65.02
11523;BME280;70090;43.208;27.904;2023-09-18T08:53:12;101503.00;;;27.12;65.22
11523;BME280;70090;43.208;27.904;2023-09-18T08:55:40;101488.53;;;27.10;64.34
11523;BME280;70090;43.208;27.904;2023-09-18T08:58:07;101482.22;;;27.06;65.11
11523;BME280;70090;43.208;27.904;2023-09-18T09:00:36;101489.44;;;27.07;66.00
11523;BME280;70090;43.208;27.904;2023-09-18T09:03:03;101491.00;;;27.08;66.99
11523;BME280;70090;43.208;27.904;2023-09-18T09:05:31;101493.78;;;26.90;67.32
11523;BME280;70090;43.208;27.904;2023-09-18T09:07:59;101485.63;;;26.92;67.98
11523;BME280;70090;43.208;27.904;2023-09-18T09:10:26;101495.53;;;26.97;68.26
11523;BME280;70090;43.208;27.904;2023-09-18T09:12:55;101495.88;;;27.08;66.61
11523;BME280;70090;43.208;27.904;2023-09-18T09:15:24;101490.34;;;27.26;66.45
11523;BME280;70090;43.208;27.904;2023-09-18T09:17:52;101489.97;;;27.15;67.19
11523;BME280;70090;43.208;27.904;2023-09-18T09:20:19;101489.28;;;27.11;67.31
11523;BME280;70090;43.208;27.904;2023-09-18T09:22:46;101503.50;;;26.98;68.09
11523;BME280;70090;43.208;27.904;2023-09-18T09:25:24;101504.31;;;26.99;65.41
11523;BME280;70090;43.208;27.904;2023-09-18T09:27:53;101501.91;;;27.19;65.41
11523;BME280;70090;43.208;27.904;2023-09-18T09:30:21;101499.50;;;27.48;64.03
11523;BME280;70090;43.208;27.904;2023-09-18T09:32:49;101509.63;;;27.76;63.30
11523;BME280;70090;43.208;27.904;2023-09-18T09:35:24;101514.19;;;27.91;61.65
11523;BME280;70090;43.208;27.904;2023-09-18T09:37:53;101513.25;;;27.76;61.36
11523;BME280;70090;43.208;27.904;2023-09-18T09:40:21;101510.31;;;27.49;63.02
11523;BME280;70090;43.208;27.904;2023-09-18T09:42:51;101511.22;;;27.28;63.39
11523;BME280;70090;43.208;27.904;2023-09-18T09:45:20;101512.94;;;27.26;62.33
11523;BME280;70090;43.208;27.904;2023-09-18T09:47:47;101512.00;;;27.29;61.14
11523;BME280;70090;43.208;27.904;2023-09-18T09:50:15;101499.97;;;27.46;60.47
11523;BME280;70090;43.208;27.904;2023-09-18T09:52:46;101499.63;;;27.35;63.32
11523;BME280;70090;43.208;27.904;2023-09-18T09:55:25;101509.25;;;27.47;64.52
11523;BME280;70090;43.208;27.904;2023-09-18T09:57:55;101502.00;;;27.55;64.05
11523;BME280;70090;43.208;27.904;2023-09-18T10:00:27;101500.78;;;27.65;62.65
11523;BME280;70090;43.208;27.904;2023-09-18T10:02:59;101509.75;;;27.63;63.41
11523;BME280;70090;43.208;27.904;2023-09-18T10:05:29;101503.13;;;27.57;62.21
11523;BME280;70090;43.208;27.904;2023-09-18T10:08:02;101504.13;;;27.90;61.23
11523;BME280;70090;43.208;27.904;2023-09-18T10:10:33;101495.03;;;27.86;59.68
11523;BME280;70090;43.208;27.904;2023-09-18T10:13:09;101499.69;;;27.71;58.28
11523;BME280;70090;43.208;27.904;2023-09-18T10:15:38;101494.72;;;27.84;58.01
11523;BME280;70090;43.208;27.904;2023-09-18T10:18:07;101491.09;;;28.02;56.76
11523;BME280;70090;43.208;27.904;2023-09-18T10:20:39;101501.94;;;28.03;54.77
11523;BME280;70090;43.208;27.904;2023-09-18T10:23:14;101502.88;;;28.09;54.69
11523;BME280;70090;43.208;27.904;2023-09-18T10:25:48;101505.06;;;28.14;53.95
11523;BME280;70090;43.208;27.904;2023-09-18T10:28:18;101493.13;;;28.19;53.25
11523;BME280;70090;43.208;27.904;2023-09-18T10:30:47;101495.63;;;27.81;53.53
11523;BME280;70090;43.208;27.904;2023-09-18T10:33:16;101495.03;;;27.86;54.04
11523;BME280;70090;43.208;27.904;2023-09-18T10:35:43;101495.00;;;28.04;53.29
11523;BME280;70090;43.208;27.904;2023-09-18T10:38:14;101488.75;;;28.00;52.34
11523;BME280;70090;43.208;27.904;2023-09-18T10:40:43;101486.22;;;28.02;52.77
11523;BME280;70090;43.208;27.904;2023-09-18T10:43:11;101484.50;;;27.96;52.40
11523;BME280;70090;43.208;27.904;2023-09-18T10:45:40;101479.94;;;28.07;53.00
11523;BME280;70090;43.208;27.904;2023-09-18T10:48:07;101479.59;;;28.05;51.79
11523;BME280;70090;43.208;27.904;2023-09-18T10:50:35;101479.13;;;28.25;52.50
11523;BME280;70090;43.208;27.904;2023-09-18T10:53:05;101476.13;;;28.46;52.73
11523;BME280;70090;43.208;27.904;2023-09-18T10:55:31;101482.69;;;28.70;51.79
11523;BME280;70090;43.208;27.904;2023-09-18T10:57:59;101476.13;;;28.46;52.58
11523;BME280;70090;43.208;27.904;2023-09-18T11:00:28;101476.38;;;28.75;53.27
11523;BME280;70090;43.208;27.904;2023-09-18T11:03:11;101464.03;;;28.96;53.43
11523;BME280;70090;43.208;27.904;2023-09-18T11:05:39;101470.81;;;28.98;54.03
11523;BME280;70090;43.208;27.904;2023-09-18T11:08:28;101464.03;;;28.87;54.19
11523;BME280;70090;43.208;27.904;2023-09-18T11:11:02;101463.97;;;28.63;53.57
11523;BME280;70090;43.208;27.904;2023-09-18T11:13:36;101466.22;;;28.42;54.55
11523;BME280;70090;43.208;27.904;2023-09-18T11:16:17;101460.69;;;28.47;55.43
11523;BME280;70090;43.208;27.904;2023-09-18T11:18:52;101466.56;;;28.26;56.77
11523;BME280;70090;43.208;27.904;2023-09-18T11:21:24;101470.19;;;28.17;53.56
11523;BME280;70090;43.208;27.904;2023-09-18T11:23:58;101466.72;;;28.40;54.16
11523;BME280;70090;43.208;27.904;2023-09-18T11:26:29;101464.75;;;28.64;54.63
11523;BME280;70090;43.208;27.904;2023-09-18T11:28:58;101478.47;;;28.66;54.39
11523;BME280;70090;43.208;27.904;2023-09-18T11:31:43;101458.69;;;28.89;55.30
11523;BME280;70090;43.208;27.904;2023-09-18T11:34:13;101465.16;;;28.80;56.14
11523;BME280;70090;43.208;27.904;2023-09-18T11:36:41;101467.25;;;28.80;56.18
11523;BME280;70090;43.208;27.904;2023-09-18T11:39:08;101462.31;;;28.98;54.66
11523;BME280;70090;43.208;27.904;2023-09-18T11:41:37;101455.16;;;29.12;52.26
11523;BME280;70090;43.208;27.904;2023-09-18T11:44:33;101450.97;;;28.98;52.37
11523;BME280;70090;43.208;27.904;2023-09-18T11:47:02;101454.28;;;28.97;52.87
11523;BME280;70090;43.208;27.904;2023-09-18T11:49:35;101446.78;;;29.17;54.13
11523;BME280;70090;43.208;27.904;2023-09-18T11:52:02;101448.25;;;29.04;55.56
11523;BME280;70090;43.208;27.904;2023-09-18T11:54:32;101442.81;;;28.82;55.40
11523;BME280;70090;43.208;27.904;2023-09-18T11:57:03;101445.78;;;28.97;56.18
11523;BME280;70090;43.208;27.904;2023-09-18T11:59:36;101444.88;;;28.91;56.52
11523;BME280;70090;43.208;27.904;2023-09-18T12:02:04;101435.72;;;28.87;58.13
11523;BME280;70090;43.208;27.904;2023-09-18T12:04:35;101435.50;;;28.58;58.15
11523;BME280;70090;43.208;27.904;2023-09-18T12:07:04;101438.66;;;28.60;57.84
11523;BME280;70090;43.208;27.904;2023-09-18T12:09:31;101450.25;;;28.80;57.78
11523;BME280;70090;43.208;27.904;2023-09-18T12:11:58;101442.91;;;29.06;57.80
11523;BME280;70090;43.208;27.904;2023-09-18T12:14:30;101438.75;;;29.16;56.40
11523;BME280;70090;43.208;27.904;2023-09-18T12:16:57;101443.88;;;29.26;56.68
11523;BME280;70090;43.208;27.904;2023-09-18T12:19:24;101435.50;;;29.55;54.71
11523;BME280;70090;43.208;27.904;2023-09-18T12:21:52;101444.06;;;29.70;54.48
11523;BME280;70090;43.208;27.904;2023-09-18T12:24:21;101442.81;;;29.71;54.40
11523;BME280;70090;43.208;27.904;2023-09-18T12:26:48;101443.16;;;29.64;54.67
11523;BME280;70090;43.208;27.904;2023-09-18T12:29:15;101439.06;;;29.41;55.36
11523;BME280;70090;43.208;27.904;2023-09-18T12:31:42;101437.84;;;28.68;55.42
11523;BME280;70090;43.208;27.904;2023-09-18T12:34:14;101444.50;;;28.57;56.61
11523;BME280;70090;43.208;27.904;2023-09-18T12:36:42;101437.56;;;28.58;56.97
11523;BME280;70090;43.208;27.904;2023-09-18T12:39:11;101435.56;;;28.81;56.74
11523;BME280;70090;43.208;27.904;2023-09-18T12:41:39;101428.41;;;29.04;55.28